createdAt,value
2022-08-11T00:00:59.370Z,13.60
2022-08-11T00:03:43.259Z,13.40
2022-08-11T00:06:14.334Z,13.30
2022-08-11T00:08:43.565Z,13.30
2022-08-11T00:11:13.181Z,13.30
2022-08-11T00:13:45.353Z,13.30
2022-08-11T00:16:16.813Z,13.20
2022-08-11T00:18:49.945Z,13.10
2022-08-11T00:21:19.037Z,13.30
2022-08-11T00:24:06.267Z,13.20
2022-08-11T00:26:35.774Z,13.10
2022-08-11T00:29:10.007Z,13.00
2022-08-11T00:31:38.179Z,12.90
2022-08-11T00:34:10.889Z,12.80
2022-08-11T00:37:03.533Z,12.70
2022-08-11T00:39:33.265Z,12.80
2022-08-11T00:42:26.438Z,13.00
2022-08-11T00:45:11.452Z,12.90
2022-08-11T00:47:55.866Z,12.80
2022-08-11T00:50:55.795Z,12.80
2022-08-11T00:53:49.048Z,12.70
2022-08-11T00:56:34.216Z,12.70
2022-08-11T00:59:35.274Z,12.70
2022-08-11T01:02:29.167Z,12.80
2022-08-11T01:05:18.345Z,13.10
2022-08-11T01:08:01.609Z,12.90
2022-08-11T01:11:03.067Z,12.80
2022-08-11T01:14:13.918Z,12.60
2022-08-11T01:17:22.557Z,12.70
2022-08-11T01:20:38.568Z,12.70
2022-08-11T01:23:00.695Z,12.50
2022-08-11T01:26:02.568Z,12.50
2022-08-11T01:28:44.525Z,12.50
2022-08-11T01:31:38.237Z,12.20
2022-08-11T01:34:17.965Z,12.20
2022-08-11T01:37:13.451Z,12.20
2022-08-11T01:39:58.929Z,12.20
2022-08-11T01:43:22.799Z,12.00
2022-08-11T01:46:01.170Z,12.00
2022-08-11T01:48:54.563Z,12.00
2022-08-11T01:51:41.947Z,11.90
2022-08-11T01:54:24.639Z,12.00
2022-08-11T01:57:28.015Z,12.10
2022-08-11T02:00:19.771Z,12.20
2022-08-11T02:03:13.035Z,12.20
2022-08-11T02:06:02.674Z,12.10
2022-08-11T02:08:55.406Z,12.10
2022-08-11T02:11:31.611Z,12.30
2022-08-11T02:14:26.952Z,12.20
2022-08-11T02:17:28.370Z,12.40
2022-08-11T02:20:33.227Z,12.30
2022-08-11T02:24:04.055Z,12.10
2022-08-11T02:26:39.809Z,12.10
2022-08-11T02:29:37.419Z,12.00
2022-08-11T02:32:34.418Z,12.10
2022-08-11T02:35:16.397Z,12.20
2022-08-11T02:38:08.129Z,12.20
2022-08-11T02:41:28.657Z,12.10
2022-08-11T02:44:10.998Z,12.20
2022-08-11T02:47:03.699Z,12.10
2022-08-11T02:50:16.649Z,12.10
2022-08-11T02:53:07.906Z,12.00
2022-08-11T02:55:57.448Z,12.00
2022-08-11T02:59:22.530Z,11.90
2022-08-11T03:02:07.930Z,11.90
2022-08-11T03:05:20.542Z,11.90
2022-08-11T03:08:15.521Z,11.90
2022-08-11T03:11:26.124Z,11.80
2022-08-11T03:14:20.632Z,11.80
2022-08-11T03:16:56.985Z,11.70
2022-08-11T03:19:45.051Z,11.70
2022-08-11T03:22:26.836Z,11.50
2022-08-11T03:25:12.879Z,11.60
2022-08-11T03:27:52.461Z,11.50
2022-08-11T03:30:40.450Z,11.50
2022-08-11T03:33:47.434Z,11.40
2022-08-11T03:36:55.750Z,11.40
2022-08-11T03:40:06.383Z,11.20
2022-08-11T03:42:59.718Z,11.10
2022-08-11T03:45:47.415Z,11.10
2022-08-11T03:48:28.027Z,11.20
2022-08-11T03:51:03.849Z,11.20
2022-08-11T03:53:30.784Z,11.30
2022-08-11T03:56:20.678Z,11.40
2022-08-11T03:59:20.638Z,11.20
2022-08-11T04:02:19.305Z,11.10
2022-08-11T04:05:15.210Z,11.20
2022-08-11T04:07:59.808Z,11.10
2022-08-11T04:10:35.912Z,11.10
2022-08-11T04:13:32.581Z,11.20
2022-08-11T04:16:24.569Z,11.40
2022-08-11T04:19:13.009Z,11.40
2022-08-11T04:21:52.342Z,11.40
2022-08-11T04:24:39.487Z,11.40
2022-08-11T04:27:37.107Z,11.40
2022-08-11T04:30:27.524Z,11.40
2022-08-11T04:33:18.783Z,11.30
2022-08-11T04:36:52.429Z,11.30
2022-08-11T04:39:43.848Z,11.30
2022-08-11T04:43:11.247Z,11.10
2022-08-11T04:46:23.185Z,11.30
2022-08-11T04:49:36.685Z,11.50
2022-08-11T04:52:36.042Z,11.70
2022-08-11T04:55:44.739Z,11.70
2022-08-11T04:58:49.749Z,11.80
2022-08-11T05:01:41.854Z,11.70
2022-08-11T05:04:33.204Z,11.80
2022-08-11T05:07:09.301Z,11.90
2022-08-11T05:09:47.719Z,12.20
2022-08-11T05:12:31.885Z,12.20
2022-08-11T05:15:19.048Z,12.20
2022-08-11T05:18:11.636Z,12.30
2022-08-11T05:21:07.101Z,12.60
2022-08-11T05:23:58.575Z,12.70
2022-08-11T05:26:49.350Z,12.80
2022-08-11T05:30:14.237Z,12.90
2022-08-11T05:33:03.609Z,13.00
2022-08-11T05:36:02.267Z,13.20
2022-08-11T05:38:47.707Z,13.10
2022-08-11T05:41:33.932Z,13.40
2022-08-11T05:44:22.643Z,13.50
2022-08-11T05:47:09.847Z,13.70
2022-08-11T05:49:57.773Z,13.90
2022-08-11T05:52:49.270Z,14.00
2022-08-11T05:55:58.358Z,14.20
2022-08-11T05:58:43.111Z,14.50
2022-08-11T06:01:13.390Z,14.80
2022-08-11T06:04:02.741Z,14.90
2022-08-11T06:06:30.189Z,15.20
2022-08-11T06:08:58.942Z,15.30
2022-08-11T06:11:44.052Z,15.40
2022-08-11T06:14:13.254Z,15.50
2022-08-11T06:16:42.172Z,16.10
2022-08-11T06:19:10.057Z,16.30
2022-08-11T06:21:38.007Z,16.70
2022-08-11T06:24:12.306Z,16.90
2022-08-11T06:27:08.668Z,17.30
2022-08-11T06:29:37.945Z,17.50
2022-08-11T06:32:14.460Z,17.50
2022-08-11T06:35:10.385Z,17.50
2022-08-11T06:37:48.622Z,17.60
2022-08-11T06:40:37.814Z,17.80
2022-08-11T06:43:37.275Z,17.90
2022-08-11T06:46:07.932Z,18.00
2022-08-11T06:48:35.476Z,18.10
2022-08-11T06:51:12.414Z,18.10
2022-08-11T06:53:41.094Z,18.30
2022-08-11T06:56:27.726Z,18.30
2022-08-11T06:59:13.970Z,18.40
2022-08-11T07:02:11.425Z,18.50
2022-08-11T07:04:56.860Z,18.70
2022-08-11T07:08:33.117Z,18.80
2022-08-11T07:12:07.482Z,18.80
2022-08-11T07:14:59.920Z,18.80
2022-08-11T07:17:28.633Z,18.80
2022-08-11T07:20:20.468Z,18.90
2022-08-11T07:23:17.932Z,19.00
2022-08-11T07:26:09.148Z,19.10
2022-08-11T07:28:56.755Z,19.10
2022-08-11T07:31:37.267Z,19.10
2022-08-11T07:34:18.017Z,19.30
2022-08-11T07:36:56.595Z,19.40
2022-08-11T07:39:26.937Z,19.30
2022-08-11T07:41:57.086Z,19.50
2022-08-11T07:44:30.731Z,19.50
2022-08-11T07:47:19.357Z,19.50
2022-08-11T07:50:09.073Z,19.90
2022-08-11T07:52:38.289Z,19.80
2022-08-11T07:55:17.696Z,19.90
2022-08-11T07:58:16.773Z,19.70
2022-08-11T08:01:21.553Z,19.90
2022-08-11T08:04:09.837Z,20.10
2022-08-11T08:06:56.331Z,20.40
2022-08-11T08:09:43.714Z,20.50
2022-08-11T08:12:30.764Z,20.70
2022-08-11T08:15:17.225Z,21.00
2022-08-11T08:18:13.617Z,21.20
2022-08-11T08:20:52.213Z,21.20
2022-08-11T08:23:34.403Z,21.40
2022-08-11T08:26:05.930Z,21.50
2022-08-11T08:28:46.832Z,21.60
2022-08-11T08:31:13.844Z,22.00
2022-08-11T08:33:42.160Z,22.00
2022-08-11T08:36:14.269Z,22.40
2022-08-11T08:38:50.329Z,22.80
2022-08-11T08:41:32.736Z,23.00
2022-08-11T08:44:35.149Z,23.10
2022-08-11T08:46:57.870Z,22.80
2022-08-11T08:49:40.612Z,23.20
2022-08-11T08:52:21.746Z,23.50
2022-08-11T08:55:04.436Z,24.10
2022-08-11T08:57:39.179Z,24.40
2022-08-11T09:00:13.087Z,23.90
2022-08-11T09:02:41.962Z,24.10
2022-08-11T09:05:10.519Z,24.20
2022-08-11T09:07:39.789Z,24.80
2022-08-11T09:10:08.975Z,24.40
2022-08-11T09:12:39.201Z,24.90
2022-08-11T09:15:10.652Z,24.60
2022-08-11T09:17:37.590Z,24.70
2022-08-11T09:20:19.001Z,25.30
2022-08-11T09:26:18.924Z,25.80
2022-08-11T09:28:47.298Z,25.30
2022-08-11T09:31:16.209Z,25.50
2022-08-11T09:33:44.555Z,25.50
2022-08-11T09:36:32.706Z,25.80
2022-08-11T09:39:21.784Z,25.70
2022-08-11T09:42:01.943Z,26.20
2022-08-11T09:44:50.649Z,26.00
2022-08-11T09:47:29.565Z,26.00
2022-08-11T09:50:02.830Z,25.80
2022-08-11T09:52:35.757Z,26.70
2022-08-11T09:55:06.556Z,26.60
2022-08-11T09:57:51.772Z,26.70
2022-08-11T10:00:18.951Z,26.60
2022-08-11T10:02:49.922Z,26.20
2022-08-11T10:05:38.978Z,26.80
2022-08-11T10:08:07.245Z,27.10
2022-08-11T10:10:39.295Z,26.60
2022-08-11T10:14:32.131Z,27.00
2022-08-11T10:16:15.574Z,27.20
2022-08-11T10:18:52.396Z,26.90
2022-08-11T10:21:25.477Z,26.70
2022-08-11T10:24:12.226Z,27.00
2022-08-11T10:27:01.117Z,27.30
2022-08-11T10:29:51.252Z,28.50
2022-08-11T10:32:58.623Z,27.90
2022-08-11T10:35:28.247Z,28.10
2022-08-11T10:38:08.431Z,27.60
2022-08-11T10:41:07.207Z,27.50
2022-08-11T10:44:01.668Z,27.30
2022-08-11T10:46:43.253Z,27.60
2022-08-11T10:49:10.215Z,28.10
2022-08-11T10:51:58.676Z,28.50
2022-08-11T10:54:44.769Z,28.20
2022-08-11T10:57:33.476Z,28.40
2022-08-11T11:00:01.116Z,28.50
2022-08-11T11:02:29.258Z,28.20
2022-08-11T11:05:01.621Z,28.20
2022-08-11T11:07:48.693Z,28.20
2022-08-11T11:10:17.155Z,28.20
2022-08-11T11:13:05.590Z,28.90
2022-08-11T11:15:54.545Z,28.40
2022-08-11T11:18:25.112Z,27.60
2022-08-11T11:21:04.350Z,27.70
2022-08-11T11:24:01.854Z,27.90
2022-08-11T11:26:57.027Z,28.30
2022-08-11T11:30:02.062Z,28.50
2022-08-11T11:32:57.999Z,28.90
2022-08-11T11:35:35.980Z,28.20
2022-08-11T11:38:13.774Z,28.40
2022-08-11T11:40:41.871Z,28.20
2022-08-11T11:43:08.837Z,28.20
2022-08-11T11:45:36.202Z,29.00
2022-08-11T11:48:03.968Z,29.40
2022-08-11T11:50:36.657Z,28.70
2022-08-11T11:53:10.042Z,29.10
2022-08-11T11:55:37.795Z,29.20
2022-08-11T11:58:25.131Z,29.60
2022-08-11T12:01:11.839Z,29.60
2022-08-11T12:03:40.838Z,30.30
2022-08-11T12:06:09.280Z,29.80
2022-08-11T12:08:37.817Z,29.00
2022-08-11T12:11:27.231Z,28.80
2022-08-11T12:13:55.149Z,28.70
2022-08-11T12:16:33.538Z,29.00
2022-08-11T12:19:08.034Z,29.70
2022-08-11T12:21:36.456Z,29.90
2022-08-11T12:24:22.712Z,29.40
2022-08-11T12:27:17.220Z,29.60
2022-08-11T12:29:51.362Z,29.90
2022-08-11T12:32:24.537Z,30.20
2022-08-11T12:34:51.927Z,30.20
2022-08-11T12:37:23.655Z,30.30
2022-08-11T12:40:49.479Z,30.10
2022-08-11T12:43:31.018Z,29.50
2022-08-11T12:46:13.506Z,29.80
2022-08-11T12:49:05.168Z,29.60
2022-08-11T12:52:00.746Z,28.40
2022-08-11T12:55:02.493Z,29.10
2022-08-11T12:57:56.036Z,29.00
2022-08-11T13:00:43.507Z,29.20
2022-08-11T13:03:31.840Z,29.70
2022-08-11T13:06:02.531Z,29.50
2022-08-11T13:08:33.404Z,28.90
2022-08-11T13:11:20.449Z,29.00
2022-08-11T13:13:53.811Z,29.80
2022-08-11T13:16:25.311Z,29.70
2022-08-11T13:18:53.781Z,29.80
2022-08-11T13:21:22.803Z,29.70
2022-08-11T13:24:00.561Z,30.10
2022-08-11T13:26:47.579Z,30.40
2022-08-11T13:29:24.986Z,30.00
2022-08-11T13:31:58.334Z,29.60
2022-08-11T13:34:27.183Z,30.50
2022-08-11T13:36:57.034Z,30.70
2022-08-11T13:39:27.173Z,30.50
2022-08-11T13:41:56.935Z,30.10
2022-08-11T13:44:27.744Z,30.40
2022-08-11T13:46:57.527Z,31.00
2022-08-11T13:49:26.192Z,31.30
2022-08-11T13:51:55.172Z,31.00
2022-08-11T13:54:25.829Z,31.10
2022-08-11T13:56:56.330Z,31.50
2022-08-11T13:59:30.957Z,30.80
2022-08-11T14:02:28.315Z,31.10
2022-08-11T14:04:58.293Z,30.60
2022-08-11T14:07:32.175Z,31.00
2022-08-11T14:10:00.523Z,30.80
2022-08-11T14:12:50.025Z,30.40
2022-08-11T14:15:21.534Z,30.90
2022-08-11T14:17:57.213Z,30.20
2022-08-11T14:20:39.248Z,31.20
2022-08-11T14:23:12.296Z,31.50
2022-08-11T14:26:02.380Z,31.40
2022-08-11T14:28:37.376Z,31.60
2022-08-11T14:31:08.757Z,31.10
2022-08-11T14:33:58.128Z,31.10
2022-08-11T14:36:25.992Z,30.80
2022-08-11T14:38:53.924Z,30.90
2022-08-11T14:42:10.088Z,31.00
2022-08-11T14:44:47.117Z,31.10
2022-08-11T14:47:23.901Z,31.00
2022-08-11T14:49:58.665Z,30.80
2022-08-11T14:52:39.347Z,30.10
2022-08-11T14:55:26.412Z,30.50
2022-08-11T14:58:04.956Z,30.20
2022-08-11T15:00:34.321Z,29.90
2022-08-11T15:03:12.845Z,31.00
2022-08-11T15:05:56.544Z,30.30
2022-08-11T15:08:46.107Z,31.00
2022-08-11T15:11:33.433Z,30.40
2022-08-11T15:14:02.501Z,30.60
2022-08-11T15:16:48.465Z,30.60
2022-08-11T15:19:17.059Z,30.40
2022-08-11T15:22:02.294Z,30.90
2022-08-11T15:24:31.023Z,30.60
2022-08-11T15:27:19.153Z,30.70
2022-08-11T15:30:07.344Z,31.00
2022-08-11T15:32:54.070Z,31.00
2022-08-11T15:35:39.919Z,31.20
2022-08-11T15:38:11.606Z,31.30
2022-08-11T15:41:00.356Z,31.30
2022-08-11T15:43:52.588Z,31.70
2022-08-11T15:46:26.340Z,31.40
2022-08-11T15:49:21.822Z,31.60
2022-08-11T15:52:13.846Z,34.10
2022-08-11T15:54:42.382Z,33.50
2022-08-11T15:57:30.833Z,33.30
2022-08-11T16:00:26.569Z,34.40
2022-08-11T16:02:56.297Z,32.60
2022-08-11T16:05:45.211Z,34.20
2022-08-11T16:08:15.748Z,32.20
2022-08-11T16:10:44.893Z,33.80
2022-08-11T16:13:14.858Z,32.40
2022-08-11T16:16:09.024Z,33.90
2022-08-11T16:18:43.552Z,34.00
2022-08-11T16:21:33.933Z,33.80
2022-08-11T16:24:06.287Z,33.80
2022-08-11T16:27:10.669Z,34.00
2022-08-11T16:29:27.052Z,34.50
2022-08-11T16:32:15.141Z,34.30
2022-08-11T16:35:02.949Z,34.30
2022-08-11T16:37:52.615Z,33.50
2022-08-11T16:40:22.850Z,33.40
2022-08-11T16:43:11.698Z,33.70
2022-08-11T16:45:59.521Z,31.50
2022-08-11T16:48:35.645Z,33.10
2022-08-11T16:51:07.008Z,34.60
2022-08-11T16:54:00.028Z,34.60
2022-08-11T16:56:48.372Z,33.40
2022-08-11T16:59:29.803Z,34.30
2022-08-11T17:02:08.009Z,33.60
2022-08-11T17:05:10.491Z,33.40
2022-08-11T17:08:02.348Z,33.40
2022-08-11T17:11:11.816Z,34.10
2022-08-11T17:13:47.016Z,33.40
2022-08-11T17:16:19.876Z,32.10
2022-08-11T17:19:01.633Z,32.30
2022-08-11T17:21:33.590Z,33.60
2022-08-11T17:24:08.725Z,33.00
2022-08-11T17:26:55.745Z,33.30
2022-08-11T17:29:54.109Z,33.00
2022-08-11T17:33:01.028Z,32.90
2022-08-11T17:35:39.081Z,32.80
2022-08-11T17:38:17.082Z,32.40
2022-08-11T17:41:06.783Z,32.40
2022-08-11T17:43:52.558Z,32.70
2022-08-11T17:46:39.271Z,32.80
2022-08-11T17:49:08.938Z,29.90
2022-08-11T17:51:55.625Z,29.80
2022-08-11T17:54:42.646Z,30.70
2022-08-11T17:57:30.161Z,29.70
2022-08-11T17:59:58.886Z,29.80
2022-08-11T18:02:53.568Z,28.90
2022-08-11T18:05:24.454Z,26.80
2022-08-11T18:08:13.187Z,26.10
2022-08-11T18:11:01.026Z,25.60
2022-08-11T18:13:57.044Z,25.30
2022-08-11T18:16:42.622Z,24.90
2022-08-11T18:19:30.863Z,24.60
2022-08-11T18:22:35.513Z,24.30
2022-08-11T18:25:27.785Z,24.30
2022-08-11T18:28:15.000Z,24.10
2022-08-11T18:31:04.400Z,23.80
2022-08-11T18:34:06.965Z,23.60
2022-08-11T18:37:22.103Z,23.40
2022-08-11T18:40:25.919Z,23.20
2022-08-11T18:43:13.543Z,23.00
2022-08-11T18:46:06.271Z,22.90
2022-08-11T18:48:56.432Z,22.70
2022-08-11T18:51:43.896Z,22.30
2022-08-11T18:54:30.780Z,22.20
2022-08-11T18:57:21.146Z,22.00
2022-08-11T19:00:08.898Z,21.90
2022-08-11T19:02:59.327Z,21.70
2022-08-11T19:06:32.565Z,21.70
2022-08-11T19:09:00.002Z,21.50
2022-08-11T19:11:47.645Z,21.20
2022-08-11T19:14:34.912Z,21.20
2022-08-11T19:17:44.370Z,21.00
2022-08-11T19:20:32.236Z,20.90
2022-08-11T19:23:18.619Z,20.70
2022-08-11T19:26:05.677Z,20.60
2022-08-11T19:28:53.825Z,20.40
2022-08-11T19:31:44.436Z,20.40
2022-08-11T19:34:35.075Z,20.40
2022-08-11T19:37:25.079Z,20.30
2022-08-11T19:40:13.486Z,20.20
2022-08-11T19:43:01.657Z,20.00
2022-08-11T19:45:52.793Z,19.90
2022-08-11T19:48:40.608Z,19.70
2022-08-11T19:51:28.698Z,19.30
2022-08-11T19:54:15.961Z,19.20
2022-08-11T19:57:03.131Z,18.90
2022-08-11T19:59:50.092Z,18.70
2022-08-11T20:02:35.872Z,18.50
2022-08-11T20:05:21.468Z,18.40
2022-08-11T20:08:09.116Z,18.40
2022-08-11T20:10:55.598Z,18.20
2022-08-11T20:13:44.944Z,18.10
2022-08-11T20:16:33.261Z,18.10
2022-08-11T20:19:26.032Z,18.10
2022-08-11T20:22:27.024Z,18.00
2022-08-11T20:25:14.052Z,18.00
2022-08-11T20:28:02.854Z,18.00
2022-08-11T20:30:51.761Z,18.00
2022-08-11T20:33:38.033Z,17.60
2022-08-11T20:36:24.467Z,17.30
2022-08-11T20:39:11.908Z,17.10
2022-08-11T20:41:59.602Z,17.10
2022-08-11T20:44:46.717Z,16.90
2022-08-11T20:47:59.041Z,16.90
2022-08-11T20:50:42.013Z,16.90
2022-08-11T20:53:35.950Z,16.90
2022-08-11T20:56:28.454Z,16.90
2022-08-11T20:59:22.137Z,16.90
2022-08-11T21:02:10.561Z,16.60
2022-08-11T21:05:00.311Z,16.50
2022-08-11T21:07:56.771Z,16.70
2022-08-11T21:10:51.136Z,16.80
2022-08-11T21:13:39.274Z,16.80
2022-08-11T21:16:27.180Z,16.80
2022-08-11T21:19:55.128Z,16.90
2022-08-11T21:22:28.612Z,16.50
2022-08-11T21:25:17.048Z,16.60
2022-08-11T21:28:04.954Z,16.20
2022-08-11T21:30:55.772Z,15.50
2022-08-11T21:33:46.120Z,15.80
2022-08-11T21:36:33.693Z,15.90
2022-08-11T21:39:20.860Z,16.00
2022-08-11T21:42:12.275Z,16.20
2022-08-11T21:45:00.534Z,16.30
2022-08-11T21:47:46.985Z,16.30
2022-08-11T21:50:32.701Z,16.10
2022-08-11T21:53:18.640Z,15.60
2022-08-11T21:56:05.284Z,15.50
2022-08-11T21:58:51.672Z,15.70
2022-08-11T22:01:38.213Z,15.60
2022-08-11T22:04:25.893Z,15.60
2022-08-11T22:07:11.710Z,15.50
2022-08-11T22:09:57.565Z,15.40
2022-08-11T22:12:45.306Z,15.40
2022-08-11T22:15:31.848Z,15.20
2022-08-11T22:18:19.641Z,15.10
2022-08-11T22:21:05.408Z,15.30
2022-08-11T22:23:54.880Z,15.30
2022-08-11T22:26:42.224Z,15.30
2022-08-11T22:29:49.982Z,15.20
2022-08-11T22:32:38.073Z,15.20
2022-08-11T22:35:28.560Z,15.00
2022-08-11T22:38:16.239Z,15.00
2022-08-11T22:41:02.075Z,15.00
2022-08-11T22:43:47.975Z,15.00
2022-08-11T22:46:35.418Z,15.00
2022-08-11T22:49:21.855Z,15.10
2022-08-11T22:52:08.897Z,15.20
2022-08-11T22:54:55.908Z,15.00
2022-08-11T22:58:00.487Z,14.90
2022-08-11T23:00:47.591Z,14.90
2022-08-11T23:03:38.249Z,14.70
2022-08-11T23:06:24.574Z,14.70
2022-08-11T23:09:11.295Z,14.60
2022-08-11T23:12:07.732Z,14.60
2022-08-11T23:14:58.208Z,14.50
2022-08-11T23:17:44.651Z,14.50
2022-08-11T23:20:42.156Z,14.40
2022-08-11T23:23:38.388Z,14.50
2022-08-11T23:26:25.227Z,14.50
2022-08-11T23:29:12.521Z,14.40
2022-08-11T23:31:58.708Z,14.50
2022-08-11T23:35:37.228Z,14.50
2022-08-11T23:37:59.993Z,14.10
2022-08-11T23:40:45.448Z,13.70
2022-08-11T23:43:41.953Z,14.00
2022-08-11T23:46:28.110Z,13.80
2022-08-11T23:49:19.989Z,13.90
2022-08-11T23:52:06.476Z,13.80
2022-08-11T23:54:55.081Z,13.90
2022-08-11T23:57:47.647Z,13.80
